createdAt,value
2023-05-08T00:00:01.346Z,13.5
2023-05-08T00:01:02.010Z,13.5
2023-05-08T00:02:01.576Z,13.6
2023-05-08T00:03:01.237Z,13.5
2023-05-08T00:04:02.016Z,13.6
2023-05-08T00:05:01.455Z,13.6
2023-05-08T00:06:01.990Z,13.6
2023-05-08T00:07:01.609Z,13.6
2023-05-08T00:08:01.176Z,13.7
2023-05-08T00:09:01.763Z,13.7
2023-05-08T00:10:01.358Z,13.7
2023-05-08T00:11:01.947Z,13.6
2023-05-08T00:12:01.563Z,13.6
2023-05-08T00:13:02.208Z,13.6
2023-05-08T00:14:01.881Z,13.5
2023-05-08T00:15:01.371Z,13.5
2023-05-08T00:16:01.958Z,13.5
2023-05-08T00:17:01.608Z,13.4
2023-05-08T00:18:02.164Z,13.5
2023-05-08T00:19:01.767Z,13.4
2023-05-08T00:20:01.411Z,13.4
2023-05-08T00:21:01.951Z,13.4
2023-05-08T00:22:01.596Z,13.4
2023-05-08T00:23:02.171Z,13.4
2023-05-08T00:24:01.772Z,13.4
2023-05-08T00:25:01.362Z,13.4
2023-05-08T00:26:01.937Z,13.4
2023-05-08T00:27:01.524Z,13.3
2023-05-08T00:28:02.118Z,13.4
2023-05-08T00:29:01.727Z,13.3
2023-05-08T00:30:01.315Z,13.4
2023-05-08T00:31:01.902Z,13.3
2023-05-08T00:32:01.525Z,13.3
2023-05-08T00:33:02.116Z,13.3
2023-05-08T00:34:01.745Z,13.3
2023-05-08T00:35:01.379Z,13.3
2023-05-08T00:36:01.901Z,13.3
2023-05-08T00:37:01.494Z,13.2
2023-05-08T00:38:02.124Z,13.2
2023-05-08T00:39:01.771Z,13.2
2023-05-08T00:40:01.315Z,13.2
2023-05-08T00:41:01.881Z,13.2
2023-05-08T00:42:01.498Z,13.2
2023-05-08T00:43:02.048Z,13.2
2023-05-08T00:44:01.633Z,13.2
2023-05-08T00:45:01.233Z,13.2
2023-05-08T00:46:01.833Z,13.2
2023-05-08T00:47:01.454Z,13.2
2023-05-08T00:48:02.037Z,13.2
2023-05-08T00:49:01.644Z,13.2
2023-05-08T00:50:01.215Z,13.2
2023-05-08T00:51:01.794Z,13.1
2023-05-08T00:52:01.413Z,13.1
2023-05-08T00:53:01.962Z,13.1
2023-05-08T00:54:01.575Z,13.1
2023-05-08T00:55:02.133Z,13.2
2023-05-08T00:56:01.751Z,13.1
2023-05-08T00:57:01.359Z,13
2023-05-08T00:58:01.925Z,13
2023-05-08T00:59:01.520Z,13
2023-05-08T01:00:02.125Z,13
2023-05-08T01:01:01.761Z,13
2023-05-08T01:02:01.635Z,13.1
2023-05-08T01:03:02.176Z,13
2023-05-08T01:04:01.666Z,13.1
2023-05-08T01:05:02.142Z,13.1
2023-05-08T01:06:01.736Z,13
2023-05-08T01:07:01.357Z,13
2023-05-08T01:08:01.985Z,13
2023-05-08T01:09:01.547Z,13
2023-05-08T01:10:02.163Z,13
2023-05-08T01:11:01.772Z,13
2023-05-08T01:12:01.377Z,12.8
2023-05-08T01:13:02.007Z,12.9
2023-05-08T01:14:01.614Z,12.9
2023-05-08T01:15:01.190Z,12.9
2023-05-08T01:16:01.796Z,12.9
2023-05-08T01:17:01.403Z,12.9
2023-05-08T01:18:02.038Z,12.8
2023-05-08T01:19:01.645Z,12.8
2023-05-08T01:20:01.215Z,12.8
2023-05-08T01:21:01.785Z,12.8
2023-05-08T01:22:01.391Z,12.8
2023-05-08T01:23:01.972Z,12.8
2023-05-08T01:24:01.563Z,12.8
2023-05-08T01:25:02.187Z,12.8
2023-05-08T01:26:01.802Z,12.8
2023-05-08T01:27:01.375Z,12.8
2023-05-08T01:28:01.957Z,12.8
2023-05-08T01:29:01.557Z,12.8
2023-05-08T01:30:02.151Z,12.8
2023-05-08T01:31:01.742Z,12.8
2023-05-08T01:32:01.352Z,12.7
2023-05-08T01:33:02.149Z,12.8
2023-05-08T01:34:01.627Z,12.8
2023-05-08T01:35:02.157Z,12.8
2023-05-08T01:36:01.780Z,12.7
2023-05-08T01:37:01.392Z,12.7
2023-05-08T01:38:01.968Z,12.7
2023-05-08T01:39:01.553Z,12.7
2023-05-08T01:40:02.159Z,12.7
2023-05-08T01:41:01.792Z,12.7
2023-05-08T01:42:01.384Z,12.8
2023-05-08T01:43:01.941Z,12.7
2023-05-08T01:44:01.536Z,12.7
2023-05-08T01:45:02.127Z,12.7
2023-05-08T01:46:01.743Z,12.7
2023-05-08T01:47:01.429Z,12.7
2023-05-08T01:48:01.994Z,12.7
2023-05-08T01:49:01.576Z,12.7
2023-05-08T01:50:02.141Z,12.7
2023-05-08T01:51:01.768Z,12.7
2023-05-08T01:52:01.360Z,12.7
2023-05-08T01:53:01.938Z,12.7
2023-05-08T01:54:01.560Z,12.7
2023-05-08T01:55:02.104Z,12.6
2023-05-08T01:56:01.701Z,12.7
2023-05-08T01:57:01.313Z,12.6
2023-05-08T01:58:01.985Z,12.6
2023-05-08T01:59:01.572Z,12.5
2023-05-08T02:00:02.114Z,12.6
2023-05-08T02:01:01.729Z,12.6
2023-05-08T02:02:01.343Z,12.6
2023-05-08T02:03:02.066Z,12.5
2023-05-08T02:04:01.569Z,12.5
2023-05-08T02:05:02.133Z,12.6
2023-05-08T02:06:01.728Z,12.5
2023-05-08T02:07:01.310Z,12.5
2023-05-08T02:08:01.908Z,12.5
2023-05-08T02:09:01.531Z,12.5
2023-05-08T02:10:02.116Z,12.5
2023-05-08T02:11:01.712Z,12.5
2023-05-08T02:12:01.305Z,12.5
2023-05-08T02:13:01.931Z,12.5
2023-05-08T02:14:01.589Z,12.5
2023-05-08T02:15:02.144Z,12.5
2023-05-08T02:16:01.748Z,12.5
2023-05-08T02:17:01.409Z,12.4
2023-05-08T02:18:01.968Z,12.5
2023-05-08T02:19:01.584Z,12.4
2023-05-08T02:20:01.202Z,12.5
2023-05-08T02:21:01.759Z,12.5
2023-05-08T02:22:01.359Z,12.5
2023-05-08T02:23:01.954Z,12.4
2023-05-08T02:24:01.568Z,12.4
2023-05-08T02:25:02.172Z,12.3
2023-05-08T02:26:01.777Z,12.4
2023-05-08T02:27:01.378Z,12.4
2023-05-08T02:28:01.954Z,12.4
2023-05-08T02:29:01.550Z,12.5
2023-05-08T02:30:02.172Z,12.4
2023-05-08T02:31:01.777Z,12.4
2023-05-08T02:32:01.392Z,12.3
2023-05-08T02:33:01.985Z,12.3
2023-05-08T02:34:01.595Z,12.3
2023-05-08T02:35:03.371Z,12.3
2023-05-08T02:36:01.748Z,12.4
2023-05-08T02:37:01.350Z,12.4
2023-05-08T02:38:01.954Z,12.3
2023-05-08T02:39:01.545Z,12.3
2023-05-08T02:40:02.142Z,12.4
2023-05-08T02:41:01.735Z,12.3
2023-05-08T02:42:01.326Z,12.4
2023-05-08T02:43:01.901Z,12.4
2023-05-08T02:44:01.495Z,12.3
2023-05-08T02:45:02.083Z,12.4
2023-05-08T02:46:01.808Z,12.4
2023-05-08T02:47:01.254Z,12.4
2023-05-08T02:48:01.841Z,12.4
2023-05-08T02:49:01.475Z,12.4
2023-05-08T02:50:02.075Z,12.4
2023-05-08T02:51:01.663Z,12.4
2023-05-08T02:52:01.251Z,12.3
2023-05-08T02:53:01.824Z,12.3
2023-05-08T02:54:01.440Z,12.4
2023-05-08T02:55:01.996Z,12.3
2023-05-08T02:56:01.596Z,12.3
2023-05-08T02:57:02.164Z,12.3
2023-05-08T02:58:01.767Z,12.3
2023-05-08T02:59:01.388Z,12.3
2023-05-08T03:00:01.935Z,12.3
2023-05-08T03:01:01.571Z,12.3
2023-05-08T03:02:02.140Z,12.2
2023-05-08T03:03:01.891Z,12.2
2023-05-08T03:04:01.450Z,12.2
2023-05-08T03:05:01.954Z,12.2
2023-05-08T03:06:01.612Z,12.3
2023-05-08T03:07:02.164Z,12.3
2023-05-08T03:08:01.753Z,12.3
2023-05-08T03:09:01.343Z,12.2
2023-05-08T03:10:01.944Z,12.2
2023-05-08T03:11:01.568Z,12.1
2023-05-08T03:12:02.131Z,12.1
2023-05-08T03:13:01.730Z,12.1
2023-05-08T03:14:01.346Z,12.1
2023-05-08T03:15:01.938Z,12.2
2023-05-08T03:16:01.577Z,12.2
2023-05-08T03:17:02.124Z,12.2
2023-05-08T03:18:01.811Z,12.2
2023-05-08T03:19:01.376Z,12.1
2023-05-08T03:20:01.923Z,12.1
2023-05-08T03:21:01.552Z,12.1
2023-05-08T03:22:02.118Z,12
2023-05-08T03:23:01.734Z,11.9
2023-05-08T03:24:01.331Z,11.9
2023-05-08T03:25:01.921Z,11.9
2023-05-08T03:26:01.526Z,11.9
2023-05-08T03:27:02.102Z,11.8
2023-05-08T03:28:01.731Z,11.8
2023-05-08T03:29:01.323Z,11.8
2023-05-08T03:30:01.913Z,11.8
2023-05-08T03:31:01.560Z,11.8
2023-05-08T03:32:02.095Z,11.8
2023-05-08T03:33:01.774Z,11.8
2023-05-08T03:34:01.292Z,11.7
2023-05-08T03:35:01.867Z,11.6
2023-05-08T03:36:01.468Z,11.6
2023-05-08T03:37:02.053Z,11.7
2023-05-08T03:38:01.657Z,11.7
2023-05-08T03:39:01.263Z,11.6
2023-05-08T03:40:01.821Z,11.6
2023-05-08T03:41:01.422Z,11.7
2023-05-08T03:42:02.017Z,11.6
2023-05-08T03:43:01.614Z,11.5
2023-05-08T03:44:01.226Z,11.6
2023-05-08T03:45:01.807Z,11.4
2023-05-08T03:46:01.432Z,11.5
2023-05-08T03:47:02.046Z,11.5
2023-05-08T03:48:01.698Z,11.5
2023-05-08T03:49:01.246Z,11.4
2023-05-08T03:50:01.849Z,11.5
2023-05-08T03:51:01.446Z,11.5
2023-05-08T03:52:02.026Z,11.5
2023-05-08T03:53:01.618Z,11.5
2023-05-08T03:54:01.206Z,11.5
2023-05-08T03:55:01.799Z,11.5
2023-05-08T03:56:01.387Z,11.4
2023-05-08T03:57:01.977Z,11.4
2023-05-08T03:58:01.575Z,11.4
2023-05-08T03:59:02.147Z,11.4
2023-05-08T04:00:01.800Z,11.3
2023-05-08T04:01:01.376Z,11.3
2023-05-08T04:02:01.969Z,11.3
2023-05-08T04:03:01.660Z,11.2
2023-05-08T04:04:01.300Z,11.1
2023-05-08T04:05:01.787Z,11.2
2023-05-08T04:06:01.396Z,11.2
2023-05-08T04:07:01.962Z,11.2
2023-05-08T04:08:01.567Z,11.2
2023-05-08T04:09:02.149Z,11.1
2023-05-08T04:10:01.807Z,11.2
2023-05-08T04:11:01.395Z,11.2
2023-05-08T04:12:01.969Z,11.1
2023-05-08T04:13:01.634Z,11.1
2023-05-08T04:14:02.202Z,11.1
2023-05-08T04:15:01.849Z,11.2
2023-05-08T04:16:01.396Z,11.2
2023-05-08T04:17:02.124Z,11.2
2023-05-08T04:18:01.678Z,11.2
2023-05-08T04:19:01.233Z,11.2
2023-05-08T04:20:01.825Z,11.3
2023-05-08T04:21:01.448Z,11.3
2023-05-08T04:22:02.122Z,11.3
2023-05-08T04:23:01.697Z,11.3
2023-05-08T04:24:01.282Z,11.4
2023-05-08T04:25:01.893Z,11.4
2023-05-08T04:26:01.484Z,11.5
2023-05-08T04:27:02.065Z,11.4
2023-05-08T04:28:01.690Z,11.5
2023-05-08T04:29:01.229Z,11.5
2023-05-08T04:30:01.814Z,11.5
2023-05-08T04:31:01.407Z,11.4
2023-05-08T04:32:02.109Z,11.4
2023-05-08T04:33:01.703Z,11.5
2023-05-08T04:34:01.234Z,11.4
2023-05-08T04:35:01.848Z,11.4
2023-05-08T04:36:01.473Z,11.4
2023-05-08T04:37:02.043Z,11.5
2023-05-08T04:38:01.683Z,11.6
2023-05-08T04:39:01.306Z,11.6
2023-05-08T04:40:01.814Z,11.8
2023-05-08T04:41:01.426Z,11.9
2023-05-08T04:42:01.988Z,11.9
2023-05-08T04:43:01.577Z,12
2023-05-08T04:44:02.192Z,12.1
2023-05-08T04:45:01.801Z,12.2
2023-05-08T04:46:01.582Z,12.1
2023-05-08T04:47:01.993Z,12.1
2023-05-08T04:48:01.857Z,12.1
2023-05-08T04:49:02.180Z,12
2023-05-08T04:50:02.926Z,12
2023-05-08T04:51:02.059Z,12
2023-05-08T04:52:01.665Z,12
2023-05-08T04:53:01.260Z,12
2023-05-08T04:54:01.930Z,12
2023-05-08T04:55:01.493Z,12
2023-05-08T04:56:02.287Z,12
2023-05-08T04:57:01.734Z,11.9
2023-05-08T04:58:01.352Z,12
2023-05-08T04:59:01.896Z,12
2023-05-08T05:00:01.493Z,12.1
2023-05-08T05:01:02.084Z,12.1
2023-05-08T05:02:01.715Z,12.2
2023-05-08T05:03:01.296Z,12.2
2023-05-08T05:04:01.834Z,12.2
2023-05-08T05:05:01.583Z,12.2
2023-05-08T05:06:02.069Z,12.3
2023-05-08T05:07:01.661Z,12.3
2023-05-08T05:08:01.263Z,12.3
2023-05-08T05:09:01.823Z,12.3
2023-05-08T05:10:01.512Z,12.4
2023-05-08T05:11:02.004Z,12.4
2023-05-08T05:12:01.613Z,12.3
2023-05-08T05:13:02.250Z,12.4
2023-05-08T05:14:01.864Z,12.4
2023-05-08T05:15:01.504Z,12.4
2023-05-08T05:16:02.019Z,12.5
2023-05-08T05:17:01.630Z,12.5
2023-05-08T05:18:01.232Z,12.5
2023-05-08T05:19:01.808Z,12.5
2023-05-08T05:20:01.408Z,12.6
2023-05-08T05:21:01.976Z,12.6
2023-05-08T05:22:01.590Z,12.8
2023-05-08T05:23:02.206Z,12.8
2023-05-08T05:24:01.794Z,13
2023-05-08T05:25:01.387Z,13.1
2023-05-08T05:26:02.001Z,13.2
2023-05-08T05:27:01.595Z,13.3
2023-05-08T05:28:02.213Z,13.3
2023-05-08T05:29:01.808Z,13.3
2023-05-08T05:30:01.439Z,13.4
2023-05-08T05:31:02.090Z,13.4
2023-05-08T05:32:01.687Z,13.4
2023-05-08T05:33:01.247Z,13.4
2023-05-08T05:34:01.806Z,13.6
2023-05-08T05:35:01.392Z,13.6
2023-05-08T05:36:02.003Z,13.6
2023-05-08T05:37:01.595Z,13.7
2023-05-08T05:38:02.178Z,13.9
2023-05-08T05:39:01.767Z,14.1
2023-05-08T05:40:01.369Z,14.2
2023-05-08T05:41:01.948Z,14.2
2023-05-08T05:42:01.579Z,14.2
2023-05-08T05:43:02.146Z,14.1
2023-05-08T05:44:01.729Z,14.1
2023-05-08T05:45:01.338Z,14
2023-05-08T05:46:01.909Z,13.9
2023-05-08T05:47:01.564Z,13.9
2023-05-08T05:48:02.110Z,13.9
2023-05-08T05:49:01.726Z,14
2023-05-08T05:50:01.337Z,14.1
2023-05-08T05:51:01.916Z,14.1
2023-05-08T05:52:01.525Z,14.3
2023-05-08T05:53:02.120Z,14.4
2023-05-08T05:54:01.716Z,14.4
2023-05-08T05:55:01.323Z,14.3
2023-05-08T05:56:01.897Z,14.4
2023-05-08T05:57:01.491Z,14.5
2023-05-08T05:58:02.089Z,14.7
2023-05-08T05:59:01.678Z,14.8
2023-05-08T06:00:01.287Z,14.9
2023-05-08T06:01:01.854Z,15
2023-05-08T06:02:01.530Z,15
2023-05-08T06:03:02.272Z,15.1
2023-05-08T06:04:01.886Z,15.2
2023-05-08T06:05:01.445Z,15.2
2023-05-08T06:06:01.913Z,15.3
2023-05-08T06:07:01.535Z,15.4
2023-05-08T06:08:02.130Z,15.5
2023-05-08T06:09:01.753Z,15.6
2023-05-08T06:10:01.323Z,15.6
2023-05-08T06:11:01.892Z,15.6
2023-05-08T06:12:01.492Z,15.8
2023-05-08T06:13:02.101Z,15.9
2023-05-08T06:14:01.747Z,15.8
2023-05-08T06:15:01.303Z,15.9
2023-05-08T06:16:01.894Z,15.9
2023-05-08T06:17:01.531Z,15.8
2023-05-08T06:18:02.136Z,15.8
2023-05-08T06:19:01.736Z,15.9
2023-05-08T06:20:01.319Z,16
2023-05-08T06:21:01.874Z,16
2023-05-08T06:22:01.461Z,16.2
2023-05-08T06:23:02.058Z,16.2
2023-05-08T06:24:01.676Z,16.2
2023-05-08T06:25:01.267Z,16.3
2023-05-08T06:26:01.825Z,16.3
2023-05-08T06:27:01.410Z,16.3
2023-05-08T06:28:02.008Z,16.2
2023-05-08T06:29:01.605Z,16.4
2023-05-08T06:30:02.349Z,16.3
2023-05-08T06:31:02.008Z,16.3
2023-05-08T06:32:01.435Z,16.4
2023-05-08T06:33:02.017Z,16.4
2023-05-08T06:34:01.677Z,16.4
2023-05-08T06:35:01.255Z,16.5
2023-05-08T06:36:01.819Z,16.6
2023-05-08T06:37:01.429Z,16.6
2023-05-08T06:38:01.995Z,16.6
2023-05-08T06:39:01.597Z,16.5
2023-05-08T06:40:11.388Z,16.5
2023-05-08T06:41:01.716Z,16.5
2023-05-08T06:42:01.331Z,16.5
2023-05-08T06:43:01.872Z,16.5
2023-05-08T06:44:01.466Z,16.5
2023-05-08T06:45:02.034Z,16.7
2023-05-08T06:46:01.706Z,16.6
2023-05-08T06:47:02.228Z,16.6
2023-05-08T06:48:01.850Z,16.6
2023-05-08T06:49:01.453Z,16.7
2023-05-08T06:50:02.048Z,16.7
2023-05-08T06:51:01.640Z,16.7
2023-05-08T06:52:01.227Z,16.8
2023-05-08T06:53:01.833Z,17
2023-05-08T06:54:01.464Z,17.1
2023-05-08T06:55:02.020Z,17.1
2023-05-08T06:56:01.613Z,17.1
2023-05-08T06:57:02.194Z,17.1
2023-05-08T06:58:01.780Z,17.1
2023-05-08T06:59:08.173Z,16.9
2023-05-08T07:00:01.928Z,16.9
2023-05-08T07:01:01.544Z,17
2023-05-08T07:02:02.249Z,17
2023-05-08T07:03:01.843Z,17.1
2023-05-08T07:04:01.397Z,17
2023-05-08T07:05:02.003Z,17.1
2023-05-08T07:06:01.711Z,17.2
2023-05-08T07:07:02.201Z,17
2023-05-08T07:08:01.800Z,17.2
2023-05-08T07:09:01.409Z,17.3
2023-05-08T07:10:01.957Z,17.4
2023-05-08T07:11:01.571Z,17.6
2023-05-08T07:12:02.136Z,17.4
2023-05-08T07:13:01.764Z,17.4
2023-05-08T07:14:01.313Z,17.5
2023-05-08T07:15:05.684Z,17.4
2023-05-08T07:16:01.491Z,17.4
2023-05-08T07:17:02.111Z,17.5
2023-05-08T07:18:01.756Z,17.5
2023-05-08T07:19:01.292Z,17.5
2023-05-08T07:20:01.894Z,17.6
2023-05-08T07:21:01.504Z,17.6
2023-05-08T07:22:02.152Z,17.5
2023-05-08T07:23:01.735Z,17.7
2023-05-08T07:24:01.313Z,17.8
2023-05-08T07:25:01.902Z,17.9
2023-05-08T07:26:01.524Z,18
2023-05-08T07:27:02.095Z,18.2
2023-05-08T07:28:01.703Z,18.2
2023-05-08T07:29:01.272Z,18.3
2023-05-08T07:30:01.858Z,18.3
2023-05-08T07:31:01.469Z,18.3
2023-05-08T07:32:02.101Z,18.3
2023-05-08T07:33:01.718Z,18.3
2023-05-08T07:34:01.301Z,18.3
2023-05-08T07:35:01.856Z,18.3
2023-05-08T07:36:01.472Z,18.3
2023-05-08T07:37:02.074Z,18.2
2023-05-08T07:38:01.670Z,18.2
2023-05-08T07:39:01.247Z,18.3
2023-05-08T07:40:01.835Z,18.3
2023-05-08T07:41:01.462Z,18.4
2023-05-08T07:42:02.043Z,18.5
2023-05-08T07:43:01.645Z,18.5
2023-05-08T07:44:01.236Z,18.7
2023-05-08T07:45:01.820Z,18.8
2023-05-08T07:46:01.415Z,18.7
2023-05-08T07:47:02.053Z,18.8
2023-05-08T07:48:01.679Z,18.7
2023-05-08T07:49:02.256Z,18.8
2023-05-08T07:50:01.929Z,18.8
2023-05-08T07:51:01.453Z,18.8
2023-05-08T07:52:02.060Z,18.9
2023-05-08T07:53:01.667Z,18.9
2023-05-08T07:54:01.235Z,18.7
2023-05-08T07:55:01.824Z,18.6
2023-05-08T07:56:01.423Z,18.7
2023-05-08T07:57:02.020Z,18.8
2023-05-08T07:58:01.611Z,18.9
2023-05-08T07:59:02.195Z,19
2023-05-08T08:00:01.786Z,19
2023-05-08T08:01:01.379Z,19.1
2023-05-08T08:02:02.025Z,19.1
2023-05-08T08:03:01.698Z,19.2
2023-05-08T08:04:02.379Z,19
2023-05-08T08:05:02.037Z,19
2023-05-08T08:06:01.566Z,19.1
2023-05-08T08:07:02.039Z,19
2023-05-08T08:08:01.630Z,18.8
2023-05-08T08:09:02.238Z,18.8
2023-05-08T08:10:01.836Z,18.8
2023-05-08T08:11:03.635Z,18.8
2023-05-08T08:12:01.977Z,18.9
2023-05-08T08:13:01.635Z,18.7
2023-05-08T08:14:02.141Z,18.7
2023-05-08T08:15:01.772Z,18.7
2023-05-08T08:16:01.357Z,18.8
2023-05-08T08:17:01.954Z,18.8
2023-05-08T08:18:01.608Z,18.8
2023-05-08T08:19:02.143Z,18.8
2023-05-08T08:20:01.804Z,18.9
2023-05-08T08:21:01.331Z,19
2023-05-08T08:22:02.033Z,19.1
2023-05-08T08:23:01.568Z,19.2
2023-05-08T08:24:02.144Z,19.2
2023-05-08T08:25:01.752Z,19.1
2023-05-08T08:26:01.347Z,19.1
2023-05-08T08:27:01.942Z,19.2
2023-05-08T08:28:01.542Z,19.4
2023-05-08T08:29:02.156Z,19.5
2023-05-08T08:30:15.530Z,19.3
2023-05-08T08:31:01.355Z,19.3
2023-05-08T08:32:01.970Z,19.5
2023-05-08T08:33:01.578Z,19.5
2023-05-08T08:34:02.170Z,19.6
2023-05-08T08:35:01.779Z,19.6
2023-05-08T08:36:01.359Z,19.7
2023-05-08T08:37:01.972Z,19.6
2023-05-08T08:38:01.722Z,19.4
2023-05-08T08:39:02.147Z,19.4
2023-05-08T08:40:01.749Z,19.3
2023-05-08T08:41:01.322Z,19.5
2023-05-08T08:42:01.930Z,19.6
2023-05-08T08:43:01.521Z,19.6
2023-05-08T08:44:02.109Z,19.6
2023-05-08T08:45:01.699Z,19.7
2023-05-08T08:46:01.314Z,19.6
2023-05-08T08:47:01.889Z,19.6
2023-05-08T08:48:01.523Z,19.8
2023-05-08T08:49:02.070Z,19.8
2023-05-08T08:50:01.671Z,19.9
2023-05-08T08:51:02.249Z,20
2023-05-08T08:52:01.860Z,19.9
2023-05-08T08:53:01.469Z,19.8
2023-05-08T08:54:02.152Z,19.6
2023-05-08T08:55:01.704Z,19.7
2023-05-08T08:56:01.280Z,19.7
2023-05-08T08:57:01.878Z,20
2023-05-08T08:58:01.505Z,20
2023-05-08T08:59:02.059Z,19.9
2023-05-08T09:00:01.656Z,19.7
2023-05-08T09:01:02.244Z,19.5
2023-05-08T09:02:01.886Z,19.4
2023-05-08T09:03:01.641Z,19.4
2023-05-08T09:04:02.150Z,19.5
2023-05-08T09:05:01.715Z,19.5
2023-05-08T09:06:01.303Z,19.5
2023-05-08T09:07:01.958Z,19.6
2023-05-08T09:08:01.556Z,19.6
2023-05-08T09:09:02.120Z,19.6
2023-05-08T09:10:01.842Z,19.5
2023-05-08T09:11:01.304Z,19.5
2023-05-08T09:12:01.882Z,19.3
2023-05-08T09:13:01.540Z,19.3
2023-05-08T09:14:02.066Z,19.3
2023-05-08T09:15:01.713Z,19.3
2023-05-08T09:16:02.283Z,19.3
2023-05-08T09:17:01.932Z,19.2
2023-05-08T09:18:01.550Z,19.2
2023-05-08T09:19:02.921Z,19
2023-05-08T09:20:01.454Z,18.9
2023-05-08T09:21:02.045Z,18.9
2023-05-08T09:22:01.706Z,19.1
2023-05-08T09:23:01.290Z,19.2
2023-05-08T09:24:01.883Z,19.4
2023-05-08T09:25:01.489Z,19.5
2023-05-08T09:26:02.195Z,19.6
2023-05-08T09:27:01.749Z,19.6
2023-05-08T09:28:01.348Z,19.6
2023-05-08T09:29:01.942Z,19.6
2023-05-08T09:30:01.546Z,19.4
2023-05-08T09:31:02.149Z,19.4
2023-05-08T09:32:01.793Z,19.4
2023-05-08T09:33:01.350Z,19.4
2023-05-08T09:34:01.907Z,19.3
2023-05-08T09:35:01.560Z,19.2
2023-05-08T09:36:02.082Z,19.3
2023-05-08T09:37:01.693Z,19.4
2023-05-08T09:38:02.262Z,19.4
2023-05-08T09:39:01.874Z,19.4
2023-05-08T09:40:01.522Z,19.3
2023-05-08T09:41:02.097Z,19.2
2023-05-08T09:42:01.813Z,19.3
2023-05-08T09:43:01.276Z,19.4
2023-05-08T09:44:01.872Z,19.4
2023-05-08T09:45:01.497Z,19.5
2023-05-08T09:46:02.126Z,19.5
2023-05-08T09:47:01.744Z,19.4
2023-05-08T09:48:01.393Z,19.2
2023-05-08T09:49:01.907Z,19.3
2023-05-08T09:50:01.492Z,19.4
2023-05-08T09:51:02.099Z,19.3
2023-05-08T09:52:01.697Z,19.1
2023-05-08T09:53:02.263Z,19.3
2023-05-08T09:54:01.865Z,19.3
2023-05-08T09:55:01.477Z,19.3
2023-05-08T09:56:02.082Z,19.3
2023-05-08T09:57:01.675Z,19.3
2023-05-08T09:58:02.378Z,19.2
2023-05-08T09:59:01.997Z,19.2
2023-05-08T10:00:01.491Z,19.3
2023-05-08T10:01:02.099Z,19.3
2023-05-08T10:02:01.712Z,19.2
2023-05-08T10:03:01.339Z,19
2023-05-08T10:04:01.921Z,18.9
2023-05-08T10:05:01.597Z,19
2023-05-08T10:06:02.159Z,19.2
2023-05-08T10:07:01.757Z,19
2023-05-08T10:08:01.438Z,18.8
2023-05-08T10:09:01.918Z,18.8
2023-05-08T10:10:01.504Z,18.9
2023-05-08T10:11:02.111Z,19.1
2023-05-08T10:12:01.719Z,19
2023-05-08T10:13:01.299Z,19.1
2023-05-08T10:14:01.987Z,18.9
2023-05-08T10:15:01.513Z,18.9
2023-05-08T10:16:02.120Z,18.8
2023-05-08T10:17:01.729Z,18.9
2023-05-08T10:18:01.334Z,18.9
2023-05-08T10:19:01.871Z,18.8
2023-05-08T10:20:01.473Z,18.9
2023-05-08T10:21:02.061Z,18.9
2023-05-08T10:22:01.677Z,19
2023-05-08T10:23:02.253Z,18.9
2023-05-08T10:24:01.872Z,18.9
2023-05-08T10:25:01.465Z,19
2023-05-08T10:26:02.051Z,19
2023-05-08T10:28:02.255Z,19.1
2023-05-08T10:29:01.871Z,19.1
2023-05-08T10:30:01.601Z,19.2
2023-05-08T10:31:02.089Z,19.3
2023-05-08T10:32:01.721Z,19.3
2023-05-08T10:33:01.308Z,19.2
2023-05-08T10:34:01.880Z,19.2
2023-05-08T10:35:01.479Z,19.1
2023-05-08T10:36:02.067Z,19.2
2023-05-08T10:37:01.681Z,19.2
2023-05-08T10:38:02.261Z,19.3
2023-05-08T10:39:01.852Z,19.4
2023-05-08T10:40:01.448Z,19.6
2023-05-08T10:41:02.030Z,19.7
2023-05-08T10:42:01.649Z,19.7
2023-05-08T10:43:02.236Z,19.7
2023-05-08T10:44:03.402Z,19.9
2023-05-08T10:45:02.153Z,19.9
2023-05-08T10:46:01.886Z,20
2023-05-08T10:47:01.491Z,20.1
2023-05-08T10:48:02.089Z,20.3
2023-05-08T10:49:01.689Z,20.5
2023-05-08T10:50:02.305Z,20.3
2023-05-08T10:51:01.978Z,20.3
2023-05-08T10:52:01.517Z,20.3
2023-05-08T10:53:02.100Z,20.6
2023-05-08T10:54:01.712Z,20.6
2023-05-08T10:55:02.294Z,20.7
2023-05-08T10:56:01.917Z,20.6
2023-05-08T10:57:01.520Z,20.7
2023-05-08T10:58:02.098Z,20.6
2023-05-08T10:59:01.702Z,20.5
2023-05-08T11:00:02.275Z,20.7
2023-05-08T11:01:01.866Z,20.8
2023-05-08T11:02:01.522Z,20.8
2023-05-08T11:03:02.143Z,20.6
2023-05-08T11:04:01.860Z,20.8
2023-05-08T11:05:02.294Z,20.8
2023-05-08T11:06:02.148Z,21
2023-05-08T11:07:01.554Z,21
2023-05-08T11:08:01.719Z,21
2023-05-08T11:09:01.321Z,20.8
2023-05-08T11:10:00.938Z,20.8
2023-05-08T11:11:01.527Z,20.8
2023-05-08T11:12:01.136Z,20.9
2023-05-08T11:13:01.781Z,20.9
2023-05-08T11:14:01.417Z,20.9
2023-05-08T11:15:00.950Z,20.9
2023-05-08T11:16:01.545Z,20.9
2023-05-08T11:17:01.189Z,20.9
2023-05-08T11:18:00.805Z,20.8
2023-05-08T11:19:01.336Z,20.8
2023-05-08T11:20:00.948Z,20.8
2023-05-08T11:21:01.510Z,20.8
2023-05-08T11:22:01.136Z,20.5
2023-05-08T11:23:01.710Z,20.5
2023-05-08T11:24:01.325Z,20.5
2023-05-08T11:25:00.923Z,20.6
2023-05-08T11:26:01.512Z,20.8
2023-05-08T11:27:01.108Z,20.6
2023-05-08T11:28:01.719Z,20.7
2023-05-08T11:29:01.312Z,20.8
2023-05-08T11:30:00.898Z,20.8
2023-05-08T11:31:01.486Z,20.9
2023-05-08T11:32:01.258Z,20.8
2023-05-08T11:33:01.718Z,20.9
2023-05-08T11:34:01.362Z,21
2023-05-08T11:35:00.933Z,21.2
2023-05-08T11:36:01.484Z,21.4
2023-05-08T11:37:01.082Z,21.4
2023-05-08T11:38:01.654Z,21.2
2023-05-08T11:39:01.240Z,21.1
2023-05-08T11:40:00.851Z,21.2
2023-05-08T11:41:01.414Z,21.3
2023-05-08T11:42:01.008Z,21.4
2023-05-08T11:43:01.589Z,21.4
2023-05-08T11:44:01.195Z,21.3
2023-05-08T11:45:00.793Z,21.3
2023-05-08T11:46:01.355Z,21.2
2023-05-08T11:47:01.032Z,21.2
2023-05-08T11:48:01.574Z,21.1
2023-05-08T11:49:01.181Z,21.2
2023-05-08T11:50:00.801Z,21.2
2023-05-08T11:51:01.352Z,21.3
2023-05-08T11:52:00.966Z,21.3
2023-05-08T11:53:01.533Z,21.3
2023-05-08T11:54:01.147Z,21.3
2023-05-08T11:55:01.707Z,21.4
2023-05-08T11:56:01.321Z,21.3
2023-05-08T11:57:00.935Z,21.3
2023-05-08T11:58:01.508Z,21.3
2023-05-08T11:59:01.103Z,21.2
2023-05-08T12:00:01.687Z,20.9
2023-05-08T12:01:01.297Z,21.2
2023-05-08T12:02:08.244Z,21.1
2023-05-08T12:03:01.521Z,21.2
2023-05-08T12:04:01.315Z,21.6
2023-05-08T12:05:01.860Z,21.8
2023-05-08T12:06:01.532Z,21.8
2023-05-08T12:07:00.978Z,21.5
2023-05-08T12:08:01.569Z,21.6
2023-05-08T12:09:01.275Z,21.7
2023-05-08T12:10:00.745Z,21.6
2023-05-08T12:11:01.334Z,21.7
2023-05-08T12:12:00.920Z,21.8
2023-05-08T12:13:01.551Z,21.7
2023-05-08T12:14:01.176Z,21.6
2023-05-08T12:15:01.740Z,21.9
2023-05-08T12:16:01.340Z,21.8
2023-05-08T12:17:00.973Z,21.8
2023-05-08T12:18:01.548Z,21.9
2023-05-08T12:19:01.199Z,22.1
2023-05-08T12:20:00.750Z,22.1
2023-05-08T12:21:01.371Z,22.1
2023-05-08T12:22:01.011Z,22
2023-05-08T12:23:01.558Z,21.9
2023-05-08T12:24:01.180Z,21.9
2023-05-08T12:25:01.742Z,21.8
2023-05-08T12:26:01.416Z,21.6
2023-05-08T12:27:00.989Z,21.5
2023-05-08T12:28:01.574Z,21.4
2023-05-08T12:29:01.188Z,21.8
2023-05-08T12:30:00.789Z,21.8
2023-05-08T12:31:01.402Z,21.9
2023-05-08T12:32:01.015Z,21.8
2023-05-08T12:33:01.641Z,21.9
2023-05-08T12:34:01.248Z,22
2023-05-08T12:35:00.849Z,22.2
2023-05-08T12:36:01.391Z,22.2
2023-05-08T12:37:00.979Z,22.2
2023-05-08T12:38:01.586Z,22.1
2023-05-08T12:39:01.179Z,21.9
2023-05-08T12:40:00.783Z,21.7
2023-05-08T12:41:01.377Z,21.7
2023-05-08T12:42:01.284Z,21.8
2023-05-08T12:43:01.555Z,21.8
2023-05-08T12:44:01.146Z,21.7
2023-05-08T12:45:01.732Z,21.8
2023-05-08T12:46:01.357Z,21.9
2023-05-08T12:47:01.036Z,21.7
2023-05-08T12:48:01.581Z,21.8
2023-05-08T12:49:01.211Z,21.6
2023-05-08T12:50:00.789Z,21.5
2023-05-08T12:51:01.397Z,21.6
2023-05-08T12:52:00.986Z,21.9
2023-05-08T12:53:01.573Z,21.9
2023-05-08T12:54:01.284Z,22
2023-05-08T12:55:01.749Z,22.1
2023-05-08T12:56:01.354Z,22
2023-05-08T12:57:00.944Z,22.1
2023-05-08T12:58:01.525Z,22.3
2023-05-08T12:59:01.121Z,22.1
2023-05-08T13:00:02.889Z,22.3
2023-05-08T13:01:01.263Z,22.1
2023-05-08T13:02:00.903Z,22.1
2023-05-08T13:03:01.510Z,22.3
2023-05-08T13:04:02.464Z,22.2
2023-05-08T13:05:01.562Z,22.1
2023-05-08T13:06:01.148Z,22
2023-05-08T13:07:01.740Z,22.1
2023-05-08T13:08:01.334Z,22.1
2023-05-08T13:09:00.940Z,21.8
2023-05-08T13:10:01.731Z,22
2023-05-08T13:11:01.170Z,21.6
2023-05-08T13:12:01.752Z,21.4
2023-05-08T13:13:01.368Z,21.5
2023-05-08T13:14:01.021Z,21.5
2023-05-08T13:15:01.580Z,21.8
2023-05-08T13:16:01.205Z,21.8
2023-05-08T13:17:00.811Z,21.7
2023-05-08T13:18:01.370Z,21.8
2023-05-08T13:19:00.995Z,21.8
2023-05-08T13:20:02.949Z,21.8
2023-05-08T13:21:01.127Z,21.8
2023-05-08T13:22:01.725Z,21.7
2023-05-08T13:23:01.336Z,21.7